Weather at Kopaida Dimitra Airfield

Public forecast

Using degrees Celsius for public forecast. Weather courtesy of forecast.io.

Closest aviation weather report (METAR) to Kopaida Dimitra Airfield

Closest report is Tanagra Air Base, 21.4 nm (39.7 km) ESE. Retrieved 2021/06/15 17:50 UTC (57 minutes ago):

LGTG 151750Z 00000KT 9999 FEW030 20/08 Q1013 RMK BKN180 BLU

Closest aviation forecast (TAF) to Kopaida Dimitra Airfield

Closest forecast is Elefsis Airport, 30.8 nm (57.1 km) SE. Retrieved 2021/06/15 18:15 UTC (32 minutes ago):

TAF LGEL 151700Z 1518/1618 VRB05KT 9999 FEW025 TEMPO 1518/1521 SCT070 BECMG 1601/1603 34010KT BECMG 1612/1614 17010KT